McKinneysburg, Kentucky
Current Conditions -  °F | °C
As of 7:53 AM on Friday 31 Oct 2014 (Local Time) from KLUK Reporting Station
Overcast Overcast  
Wind Chill: 43°   Ceiling: 5000
Heat Index: 43°   Visibility: 9mi
Dew Point: 40°   Wind: 3mph
Humidity: 89%   Direction: 200°SSW
Pressure: 29.99"   Gusts: NA
Location:  38.6506°N, 84.351°W
Report Text: KLUK 311153Z 20003KT 9SM OVC050 06/04 A2999 RMK AO2 SLP159 60001 70001 T00610044 10067 20056 56007
Loading
Personal Weather Stations






























Interactive Weather Map
Tropical Storm Tracking
New forecast layout! Learn more

10-Day Weather Forecast

Advertisements
Track Severe Weather on mobile